Time;durP1;ratioP1;P1;durP2;ratioP2;P2;SDS_P1;SDS_P2;PMS_P1;PMS_P2;Temp;Humidity;BMP_temperature;BMP_pressure;BME280_temperature;BME280_humidity;BME280_pressure;Samples;Min_cycle;Max_cycle;Signal;HPM_P1;HPM_P2
2021/05/20 00:01:54;;;;;;;4.87;2.97;;;;;;;10.67;100.00;102112.84;1806293;78;26674;-76
2021/05/20 00:04:24;;;;;;;6.17;2.10;;;;;;;10.48;100.00;102119.20;1806249;79;26647;-76
2021/05/20 00:06:54;;;;;;;4.53;2.00;;;;;;;10.52;100.00;102119.57;1806228;78;26332;-77
2021/05/20 00:09:24;;;;;;;3.83;2.53;;;;;;;10.60;100.00;102118.30;1806298;78;26234;-75
2021/05/20 00:11:54;;;;;;;3.20;1.70;;;;;;;10.65;100.00;102117.83;1806405;79;26354;-76
2021/05/20 00:14:26;;;;;;;3.87;1.33;;;;;;;10.71;100.00;102120.96;1806310;79;26724;-76
2021/05/20 00:16:56;;;;;;;5.63;2.50;;;;;;;10.64;100.00;102117.53;1806371;79;26262;-77
2021/05/20 00:19:26;;;;;;;13.63;9.37;;;;;;;10.57;100.00;102108.51;1806527;79;26219;-76
2021/05/20 00:21:56;;;;;;;5.80;2.20;;;;;;;10.59;100.00;102119.38;1806480;79;26697;-76
2021/05/20 00:24:26;;;;;;;3.77;1.67;;;;;;;10.55;100.00;102123.22;1806424;79;26283;-76
2021/05/20 00:26:55;;;;;;;3.43;1.90;;;;;;;10.51;100.00;102117.87;1806269;79;26301;-76
2021/05/20 00:29:25;;;;;;;10.30;5.80;;;;;;;10.49;100.00;102118.66;1806321;79;26231;-76
2021/05/20 00:31:55;;;;;;;4.63;1.70;;;;;;;10.51;100.00;102112.32;1806434;79;26281;-76
2021/05/20 00:34:25;;;;;;;4.27;2.10;;;;;;;10.52;100.00;102113.17;1806422;79;26715;-75
2021/05/20 00:36:55;;;;;;;3.13;1.20;;;;;;;10.40;100.00;102114.63;1806363;79;26740;-76
2021/05/20 00:39:25;;;;;;;2.63;1.47;;;;;;;10.42;100.00;102114.69;1806364;79;26277;-76
2021/05/20 00:41:55;;;;;;;3.50;1.33;;;;;;;10.31;100.00;102118.37;1806239;79;26675;-76
2021/05/20 00:44:24;;;;;;;3.73;1.47;;;;;;;10.26;100.00;102121.09;1806354;79;26331;-76
2021/05/20 00:46:54;;;;;;;2.40;1.67;;;;;;;10.27;100.00;102113.03;1806279;79;26215;-76
2021/05/20 00:49:24;;;;;;;3.97;1.40;;;;;;;10.21;100.00;102118.22;1806288;79;26238;-76
2021/05/20 00:51:54;;;;;;;3.27;1.40;;;;;;;10.18;100.00;102111.80;1806265;79;26671;-76
2021/05/20 00:54:24;;;;;;;3.07;1.40;;;;;;;10.07;100.00;102107.11;1806329;79;26673;-76
2021/05/20 00:56:54;;;;;;;2.77;1.50;;;;;;;10.01;100.00;102106.17;1806245;79;26677;-76
2021/05/20 00:59:25;;;;;;;3.73;1.20;;;;;;;9.95;100.00;102109.97;1806202;79;26219;-76
2021/05/20 01:01:55;;;;;;;3.30;1.13;;;;;;;9.91;100.00;102110.17;1806302;78;26215;-76
2021/05/20 01:04:25;;;;;;;3.40;1.47;;;;;;;9.82;100.00;102113.06;1806320;79;26235;-76
2021/05/20 01:06:54;;;;;;;5.53;1.50;;;;;;;9.80;100.00;102119.39;1806221;79;26296;-76
2021/05/20 01:09:24;;;;;;;3.13;1.33;;;;;;;9.83;100.00;102118.91;1806407;79;26270;-76
2021/05/20 01:11:54;;;;;;;2.57;1.40;;;;;;;9.81;100.00;102114.69;1806406;79;26216;-76
2021/05/20 01:14:24;;;;;;;4.93;2.03;;;;;;;9.85;100.00;102111.70;1806310;79;26662;-76
2021/05/20 01:16:54;;;;;;;3.20;1.67;;;;;;;9.91;100.00;102110.72;1806342;79;26222;-76
2021/05/20 01:19:24;;;;;;;2.50;1.83;;;;;;;9.85;100.00;102110.31;1806406;79;26219;-77
2021/05/20 01:21:54;;;;;;;2.73;1.57;;;;;;;9.80;100.00;102109.67;1806354;79;26205;-77
2021/05/20 01:24:23;;;;;;;4.90;1.60;;;;;;;9.76;100.00;102109.88;1806315;79;26220;-77
2021/05/20 01:26:55;;;;;;;3.73;1.70;;;;;;;9.72;100.00;102106.46;1806289;79;26301;-77
2021/05/20 01:29:25;;;;;;;3.57;1.57;;;;;;;9.61;100.00;102112.38;1806260;79;26309;-75
2021/05/20 01:31:55;;;;;;;6.37;2.03;;;;;;;9.55;100.00;102119.75;1806306;79;26309;-76
2021/05/20 01:34:25;;;;;;;2.90;1.70;;;;;;;9.49;100.00;102108.28;1807052;79;26732;-76
2021/05/20 01:36:54;;;;;;;3.70;1.77;;;;;;;9.50;100.00;102108.55;1806326;79;26215;-76
2021/05/20 01:39:24;;;;;;;4.80;1.80;;;;;;;9.48;100.00;102100.19;1806476;79;26219;-76
2021/05/20 01:41:54;;;;;;;2.90;2.03;;;;;;;9.47;100.00;102100.73;1806292;79;26219;-76
2021/05/20 01:44:24;;;;;;;4.27;1.70;;;;;;;9.45;100.00;102100.16;1806259;79;26293;-76
2021/05/20 01:46:54;;;;;;;3.10;1.60;;;;;;;9.38;100.00;102098.59;1806297;79;26223;-76
2021/05/20 01:49:24;;;;;;;4.47;1.60;;;;;;;9.31;100.00;102095.98;1806352;79;26235;-77
2021/05/20 01:51:53;;;;;;;3.73;1.83;;;;;;;9.28;100.00;102097.02;1806313;79;26219;-77
2021/05/20 01:54:23;;;;;;;3.30;1.93;;;;;;;9.36;100.00;102096.62;1806253;79;26674;-77
2021/05/20 01:56:53;;;;;;;2.83;2.03;;;;;;;9.27;100.00;102098.10;1806233;79;26285;-77
2021/05/20 01:59:23;;;;;;;5.30;1.90;;;;;;;9.27;100.00;102092.56;1806394;79;26215;-77
2021/05/20 02:01:53;;;;;;;4.70;2.03;;;;;;;9.16;100.00;102091.49;1806103;78;26230;-76
2021/05/20 02:04:23;;;;;;;3.53;2.17;;;;;;;9.12;100.00;102101.39;1806274;79;26218;-75
2021/05/20 02:06:53;;;;;;;3.97;1.90;;;;;;;9.09;100.00;102110.20;1806260;79;26309;-75
2021/05/20 02:09:22;;;;;;;3.67;2.40;;;;;;;9.10;100.00;102097.49;1806115;79;26267;-75
2021/05/20 02:11:53;;;;;;;6.70;2.40;;;;;;;9.23;100.00;102087.21;1806351;79;26218;-76
2021/05/20 02:14:23;;;;;;;3.47;1.73;;;;;;;9.19;100.00;102086.86;1806274;79;26294;-75
2021/05/20 02:16:53;;;;;;;4.63;2.73;;;;;;;9.16;100.00;102089.29;1806273;79;26313;-74
2021/05/20 02:19:24;;;;;;;3.13;1.80;;;;;;;9.16;100.00;102087.34;1806331;79;26228;-75
2021/05/20 02:21:54;;;;;;;4.90;2.97;;;;;;;9.09;100.00;102088.88;1806412;79;26297;-75
2021/05/20 02:24:24;;;;;;;4.50;1.93;;;;;;;9.21;100.00;102082.44;1806260;79;26285;-77
2021/05/20 02:26:53;;;;;;;4.87;2.07;;;;;;;9.40;100.00;102079.25;1806433;79;26732;-77
2021/05/20 02:29:23;;;;;;;3.67;1.90;;;;;;;9.05;100.00;102082.14;1806248;79;26685;-74
2021/05/20 02:31:53;;;;;;;4.70;2.43;;;;;;;8.90;100.00;102078.21;1806381;79;26626;-74
2021/05/20 02:34:23;;;;;;;3.80;2.13;;;;;;;8.82;100.00;102082.17;1806474;79;26669;-74
2021/05/20 02:36:53;;;;;;;2.77;1.70;;;;;;;8.76;100.00;102082.33;1806268;79;26219;-77
2021/05/20 02:39:22;;;;;;;4.20;2.20;;;;;;;8.86;100.00;102082.52;1806548;79;26211;-75
2021/05/20 02:41:52;;;;;;;3.37;2.10;;;;;;;8.80;100.00;102079.36;1806373;79;26643;-75
2021/05/20 02:44:23;;;;;;;3.50;2.20;;;;;;;8.89;100.00;102080.67;1806574;79;26223;-75
2021/05/20 02:46:54;;;;;;;4.40;2.27;;;;;;;8.99;100.00;102073.94;1806436;79;26215;-75
2021/05/20 02:49:23;;;;;;;3.63;2.00;;;;;;;8.88;100.00;102065.97;1806281;79;26685;-75
2021/05/20 02:51:53;;;;;;;3.40;2.00;;;;;;;8.89;100.00;102067.66;1806575;79;26211;-75
2021/05/20 02:54:23;;;;;;;3.23;1.97;;;;;;;8.77;100.00;102067.39;1806708;79;26383;-75
2021/05/20 02:56:53;;;;;;;5.67;2.67;;;;;;;8.78;100.00;102067.66;1806346;79;26225;-75
2021/05/20 02:59:23;;;;;;;3.97;1.90;;;;;;;8.90;100.00;102065.74;1806380;79;26219;-74
2021/05/20 03:01:53;;;;;;;3.77;2.33;;;;;;;8.85;100.00;102058.70;1806452;78;26215;-74
2021/05/20 03:04:22;;;;;;;4.83;2.53;;;;;;;8.77;100.00;102058.52;1806418;79;26235;-74
2021/05/20 03:06:52;;;;;;;3.50;2.00;;;;;;;8.81;100.00;102054.20;1806352;79;26219;-74
2021/05/20 03:09:22;;;;;;;2.13;1.93;;;;;;;8.87;100.00;102056.52;1806283;78;26278;-75
2021/05/20 03:11:53;;;;;;;5.00;2.53;;;;;;;8.60;100.00;102056.22;1806424;79;26227;-74
2021/05/20 03:14:22;;;;;;;3.50;2.00;;;;;;;8.79;100.00;102062.44;1807551;79;26690;-78
2021/05/20 03:16:52;;;;;;;4.67;2.00;;;;;;;8.86;100.00;102067.28;1807363;79;26207;-74
2021/05/20 03:19:23;;;;;;;3.17;1.50;;;;;;;8.92;100.00;102058.02;1806394;79;26658;-74
2021/05/20 03:21:52;;;;;;;3.07;2.03;;;;;;;8.93;100.00;102043.08;1806420;79;26222;-74
2021/05/20 03:24:22;;;;;;;5.37;1.93;;;;;;;8.75;100.00;102050.16;1806440;79;26231;-75
2021/05/20 03:26:52;;;;;;;5.53;2.27;;;;;;;8.77;100.00;102046.04;1806338;79;26227;-76
2021/05/20 03:29:22;;;;;;;3.43;2.03;;;;;;;8.75;100.00;102042.69;1806451;79;26332;-75
2021/05/20 03:31:55;;;;;;;4.60;2.27;;;;;;;8.66;100.00;102039.45;1806445;79;26340;-74
2021/05/20 03:34:25;;;;;;;4.93;2.33;;;;;;;8.59;100.00;102050.37;1806356;79;26219;-74
2021/05/20 03:36:55;;;;;;;2.57;2.07;;;;;;;8.66;100.00;102039.45;1806235;79;26212;-77
2021/05/20 03:39:41;;;;;;;4.77;2.00;;;;;;;8.80;100.00;102040.03;1743442;82;33575;-74
2021/05/20 03:42:11;;;;;;;6.23;2.20;;;;;;;8.77;100.00;102032.77;1743891;82;26315;-76
2021/05/20 03:44:41;;;;;;;3.17;1.80;;;;;;;8.64;100.00;102036.64;1743949;82;26381;-76
2021/05/20 03:47:11;;;;;;;5.63;2.17;;;;;;;8.53;100.00;102026.41;1743996;82;26299;-77
2021/05/20 03:49:41;;;;;;;6.30;2.63;;;;;;;8.49;100.00;102019.67;1744010;82;26296;-77
2021/05/20 03:52:11;;;;;;;3.17;2.23;;;;;;;8.48;100.00;102019.36;1743999;82;26448;-76
2021/05/20 03:54:42;;;;;;;5.50;2.13;;;;;;;8.54;100.00;102011.48;1744007;82;26260;-77
2021/05/20 03:57:13;;;;;;;2.47;1.80;;;;;;;8.47;100.00;102006.06;1744223;82;26264;-77
2021/05/20 03:59:42;;;;;;;5.77;2.47;;;;;;;8.54;100.00;102009.56;1744163;82;26272;-77
2021/05/20 04:02:12;;;;;;;4.43;2.33;;;;;;;8.50;100.00;102002.83;1757112;80;929592;-77
2021/05/20 04:04:44;;;;;;;5.20;2.40;;;;;;;8.60;100.00;102002.21;1785657;80;26303;-77
2021/05/20 04:07:14;;;;;;;3.13;2.43;;;;;;;8.46;100.00;101993.33;1786381;80;26290;-77
2021/05/20 04:09:43;;;;;;;2.27;2.07;;;;;;;8.72;100.00;101989.17;1786797;80;26744;-76
2021/05/20 04:12:13;;;;;;;4.83;2.37;;;;;;;8.55;100.00;101986.86;1836008;78;26668;-77
2021/05/20 04:14:43;;;;;;;3.33;2.10;;;;;;;8.51;100.00;101987.06;1854435;77;26200;-76
2021/05/20 04:17:16;;;;;;;2.97;2.27;;;;;;;8.51;100.00;101989.83;1836273;78;26205;-76
2021/05/20 04:19:48;;;;;;;2.40;2.07;;;;;;;8.75;100.00;101990.59;1836334;78;26601;-76
2021/05/20 04:22:18;;;;;;;4.27;2.20;;;;;;;8.63;100.00;101994.25;1837056;78;26275;-76
2021/05/20 04:24:48;;;;;;;3.77;2.27;;;;;;;8.79;100.00;101990.40;1836777;78;26636;-76
2021/05/20 04:27:17;;;;;;;4.30;2.43;;;;;;;8.83;100.00;101987.44;1836562;78;26274;-76
2021/05/20 04:29:47;;;;;;;4.83;2.27;;;;;;;8.76;100.00;101983.44;1836775;78;26197;-76
2021/05/20 04:32:17;;;;;;;4.13;2.30;;;;;;;8.78;100.00;101980.40;1836899;78;26266;-76
2021/05/20 04:34:47;;;;;;;4.33;2.40;;;;;;;8.68;100.00;101975.52;1836697;78;26266;-76
2021/05/20 04:37:17;;;;;;;4.53;2.37;;;;;;;8.86;100.00;101974.47;1836738;78;26197;-77
2021/05/20 04:39:46;;;;;;;5.53;2.27;;;;;;;8.81;100.00;101973.85;1836989;78;26212;-76
2021/05/20 04:42:16;;;;;;;5.23;2.30;;;;;;;8.86;100.00;101968.92;1837188;78;26205;-77
2021/05/20 04:44:46;;;;;;;5.93;2.30;;;;;;;8.97;100.00;101967.52;1837148;78;26302;-76
2021/05/20 04:47:16;;;;;;;2.97;2.30;;;;;;;8.89;100.00;101969.30;1836383;78;26648;-76
2021/05/20 04:49:46;;;;;;;3.50;2.33;;;;;;;8.94;100.00;101972.14;1836411;78;26295;-75
2021/05/20 04:52:16;;;;;;;3.43;2.20;;;;;;;8.89;100.00;101961.53;1836336;78;26267;-76
2021/05/20 04:54:46;;;;;;;3.17;2.20;;;;;;;8.90;100.00;101962.64;1836298;78;26233;-77
2021/05/20 04:57:16;;;;;;;3.67;2.97;;;;;;;8.95;100.00;101957.21;1836405;78;26279;-77
2021/05/20 04:59:46;;;;;;;3.53;2.10;;;;;;;9.00;100.00;101958.70;1836703;78;26743;-77
2021/05/20 05:02:16;;;;;;;3.23;2.20;;;;;;;9.03;100.00;101956.80;1836465;77;26740;-77
2021/05/20 05:04:46;;;;;;;3.90;2.20;;;;;;;9.02;100.00;101956.53;1836243;78;26200;-77
2021/05/20 05:07:16;;;;;;;4.87;2.13;;;;;;;9.13;100.00;101947.31;1836284;78;26204;-78
2021/05/20 05:09:46;;;;;;;2.77;2.27;;;;;;;9.14;100.00;101950.38;1836522;78;26200;-78
2021/05/20 05:12:16;;;;;;;2.43;1.87;;;;;;;9.14;100.00;101951.77;1836271;78;26249;-78
2021/05/20 05:14:46;;;;;;;3.67;2.33;;;;;;;9.18;100.00;101949.34;1836344;78;26713;-77
2021/05/20 05:17:16;;;;;;;3.20;2.17;;;;;;;9.31;100.00;101953.19;1836375;78;26196;-77
2021/05/20 05:19:46;;;;;;;4.33;2.20;;;;;;;9.27;100.00;101956.16;1836244;78;26208;-78
2021/05/20 05:22:16;;;;;;;4.30;2.30;;;;;;;9.28;100.00;101954.23;1836326;78;26197;-78
2021/05/20 05:24:46;;;;;;;3.80;2.27;;;;;;;9.36;100.00;101951.89;1836398;78;26186;-75
2021/05/20 05:27:16;;;;;;;2.80;1.83;;;;;;;9.39;100.00;101940.83;1836294;78;26644;-75
2021/05/20 05:29:46;;;;;;;3.47;1.87;;;;;;;9.41;100.00;101935.89;1836204;78;26660;-75
2021/05/20 05:32:15;;;;;;;3.33;1.77;;;;;;;9.43;100.00;101935.92;1836248;78;26212;-75
2021/05/20 05:34:45;;;;;;;2.93;1.97;;;;;;;9.50;100.00;101939.36;1836328;78;26283;-76
2021/05/20 05:37:15;;;;;;;2.43;2.20;;;;;;;9.53;100.00;101929.17;1836032;78;26365;-76
2021/05/20 05:39:45;;;;;;;3.57;1.83;;;;;;;9.64;100.00;101928.77;1836013;78;26205;-76
2021/05/20 05:42:15;;;;;;;2.83;2.03;;;;;;;9.57;100.00;101941.98;1836069;78;26271;-76
2021/05/20 05:44:45;;;;;;;4.00;2.10;;;;;;;9.61;100.00;101936.22;1836206;78;26213;-76
2021/05/20 05:47:15;;;;;;;3.10;2.17;;;;;;;9.59;100.00;101937.01;1836226;78;26701;-77
2021/05/20 05:49:47;;;;;;;2.80;1.73;;;;;;;9.67;100.00;101938.55;1836323;78;26287;-78
2021/05/20 05:52:20;;;;;;;5.60;2.00;;;;;;;9.75;100.00;101932.56;1836411;78;26679;-78
2021/05/20 05:54:52;;;;;;;4.80;2.20;;;;;;;9.69;100.00;101926.09;1836369;77;26359;-76
2021/05/20 05:57:21;;;;;;;4.07;2.23;;;;;;;9.78;100.00;101931.50;1836289;77;26310;-77
2021/05/20 05:59:51;;;;;;;3.40;1.80;;;;;;;9.79;100.00;101920.71;1836267;78;26181;-77
2021/05/20 06:02:24;;;;;;;6.33;2.23;;;;;;;9.75;100.00;101922.31;1836263;77;26232;-77
2021/05/20 06:04:54;;;;;;;4.17;2.00;;;;;;;9.79;100.00;101922.09;1836357;78;26197;-77
2021/05/20 06:07:24;;;;;;;5.30;2.07;;;;;;;9.85;100.00;101915.51;1836252;78;26329;-78
2021/05/20 06:09:54;;;;;;;3.37;2.00;;;;;;;9.92;100.00;101912.03;1836262;78;26196;-77
2021/05/20 06:12:24;;;;;;;2.57;1.53;;;;;;;10.04;100.00;101912.75;1836086;78;26322;-78
2021/05/20 06:14:54;;;;;;;2.30;1.63;;;;;;;10.05;100.00;101914.98;1836234;78;26702;-78
2021/05/20 06:17:24;;;;;;;3.37;1.30;;;;;;;10.04;100.00;101909.98;1836250;78;26267;-78
2021/05/20 06:19:54;;;;;;;3.23;1.50;;;;;;;10.16;100.00;101902.11;1836183;78;26197;-78
2021/05/20 06:22:24;;;;;;;3.47;1.60;;;;;;;10.11;100.00;101906.16;1836157;78;26189;-78
2021/05/20 06:24:53;;;;;;;2.40;1.50;;;;;;;10.14;100.00;101894.56;1836204;78;26209;-78
2021/05/20 06:27:26;;;;;;;3.20;1.37;;;;;;;10.36;100.00;101898.20;1836221;78;26741;-78
2021/05/20 06:29:56;;;;;;;2.37;0.93;;;;;;;10.41;100.00;101894.95;1836276;78;26271;-78
2021/05/20 06:32:28;;;;;;;2.13;1.20;;;;;;;10.38;100.00;101881.59;1836228;78;26283;-78
2021/05/20 06:34:58;;;;;;;3.23;0.90;;;;;;;10.48;100.00;101876.71;1836178;78;26612;-77
2021/05/20 06:37:29;;;;;;;2.93;1.40;;;;;;;10.48;100.00;101865.60;1836336;78;26196;-77
2021/05/20 06:39:59;;;;;;;2.80;1.30;;;;;;;10.49;100.00;101872.27;1836290;78;26269;-75
2021/05/20 06:42:29;;;;;;;5.30;1.20;;;;;;;10.52;100.00;101863.98;1836235;78;26264;-76
2021/05/20 06:44:59;;;;;;;1.63;1.30;;;;;;;10.64;100.00;101856.33;1836130;78;26660;-76
2021/05/20 06:47:28;;;;;;;3.10;1.20;;;;;;;10.67;100.00;101839.67;1836255;78;26285;-78
2021/05/20 06:49:58;;;;;;;2.80;0.93;;;;;;;10.56;100.00;101831.80;1836235;78;26205;-78
2021/05/20 06:52:28;;;;;;;3.73;1.37;;;;;;;10.70;100.00;101828.87;1836172;78;26213;-78
2021/05/20 06:54:58;;;;;;;1.60;0.90;;;;;;;10.68;100.00;101824.69;1836362;78;26263;-79
2021/05/20 06:57:31;;;;;;;2.30;1.00;;;;;;;10.86;100.00;101820.99;1836273;78;26714;-79
2021/05/20 07:00:01;;;;;;;3.00;1.20;;;;;;;10.82;100.00;101811.51;1836517;77;26263;-80
2021/05/20 07:02:32;;;;;;;1.70;1.10;;;;;;;10.82;100.00;101811.51;1836160;77;26236;-79
2021/05/20 07:05:02;;;;;;;2.67;1.20;;;;;;;10.83;100.00;101803.44;1836208;78;26201;-79
2021/05/20 07:07:32;;;;;;;2.83;1.03;;;;;;;10.97;100.00;101803.84;1836267;78;26212;-78
2021/05/20 07:10:03;;;;;;;4.17;1.27;;;;;;;10.94;100.00;101794.10;1836320;78;26620;-79
2021/05/20 07:12:33;;;;;;;3.53;1.40;;;;;;;10.95;100.00;101791.59;1836329;78;26742;-79
2021/05/20 07:15:04;;;;;;;2.17;1.37;;;;;;;11.04;100.00;101771.66;1836299;78;26268;-79
2021/05/20 07:17:34;;;;;;;3.33;1.80;;;;;;;11.20;100.00;101762.33;1836337;78;26236;-78
2021/05/20 07:20:05;;;;;;;2.57;1.50;;;;;;;11.23;100.00;101770.97;1836296;78;26237;-80
2021/05/20 07:22:35;;;;;;;2.87;1.50;;;;;;;11.31;100.00;101773.25;1836374;78;26205;-80
2021/05/20 07:25:06;;;;;;;2.70;1.70;;;;;;;11.36;100.00;101766.88;1836316;78;26209;-78
2021/05/20 07:27:36;;;;;;;3.90;2.20;;;;;;;11.47;100.00;101767.80;1836270;78;26208;-78
2021/05/20 07:30:09;;;;;;;4.30;1.93;;;;;;;11.57;100.00;101760.33;1836214;78;26283;-78
2021/05/20 07:32:39;;;;;;;4.23;2.10;;;;;;;11.60;100.00;101760.33;1836194;78;26209;-78
2021/05/20 07:35:10;;;;;;;5.40;1.93;;;;;;;11.72;100.00;101759.04;1836225;78;26333;-77
2021/05/20 07:37:41;;;;;;;3.63;1.93;;;;;;;11.91;100.00;101759.41;1836197;78;26213;-77
2021/05/20 07:40:14;;;;;;;4.57;1.90;;;;;;;12.01;100.00;101758.08;1836201;78;26295;-78
2021/05/20 07:42:43;;;;;;;4.23;2.40;;;;;;;12.09;100.00;101755.31;1836210;78;26275;-77
2021/05/20 07:45:14;;;;;;;5.70;2.77;;;;;;;12.22;100.00;101752.85;1836275;78;26200;-78
2021/05/20 07:47:47;;;;;;;3.03;1.90;;;;;;;12.24;100.00;101749.22;1836307;78;26664;-77
2021/05/20 07:50:18;;;;;;;7.50;2.40;;;;;;;12.31;100.00;101753.16;1836196;78;26204;-77
2021/05/20 07:52:48;;;;;;;8.13;2.70;;;;;;;12.31;100.00;101749.81;1836223;78;26301;-77
2021/05/20 07:55:18;;;;;;;7.90;2.07;;;;;;;12.43;100.00;101750.95;1836287;78;26197;-77
2021/05/20 07:57:49;;;;;;;6.60;2.47;;;;;;;12.63;100.00;101747.34;1836340;78;26308;-78
2021/05/20 08:00:23;;;;;;;6.90;2.20;;;;;;;12.63;100.00;101744.00;1836453;78;26213;-78
2021/05/20 08:02:58;;;;;;;6.10;2.30;;;;;;;12.66;100.00;101747.62;1836257;77;26647;-76
2021/05/20 08:05:29;;;;;;;5.70;2.30;;;;;;;12.78;100.00;101744.03;1835577;78;27055;-76
2021/05/20 08:08:02;;;;;;;8.20;2.70;;;;;;;12.97;100.00;101724.77;1836116;77;26267;-76
2021/05/20 08:10:48;;;;;;;11.20;2.80;;;;;;;12.98;100.00;101717.23;1835550;78;26193;-76
2021/05/20 08:13:16;;;;;;;6.07;2.67;;;;;;;12.94;100.00;101721.70;1836212;76;26314;-76
2021/05/20 08:15:46;;;;;;;6.03;2.00;;;;;;;12.85;100.00;101721.98;1836272;78;26286;-77
2021/05/20 08:18:17;;;;;;;6.63;2.60;;;;;;;12.90;100.00;101707.48;1836185;78;26279;-76
2021/05/20 08:20:47;;;;;;;6.50;2.30;;;;;;;12.98;100.00;101702.74;1836195;78;26348;-76
2021/05/20 08:23:17;;;;;;;5.13;2.77;;;;;;;12.93;100.00;101683.77;1836212;78;26267;-76
2021/05/20 08:25:47;;;;;;;5.03;2.67;;;;;;;12.97;100.00;101684.33;1836286;78;26210;-76
2021/05/20 08:28:17;;;;;;;291.50;260.77;;;;;;;13.08;100.00;101686.00;1836301;78;26200;-77
2021/05/20 08:30:47;;;;;;;13.80;7.83;;;;;;;13.12;100.00;101683.52;1836496;78;26287;-76
2021/05/20 08:33:17;;;;;;;12.57;9.63;;;;;;;12.97;100.00;101668.98;1836327;78;26217;-77
2021/05/20 08:35:48;;;;;;;95.10;58.67;;;;;;;13.09;100.00;101665.92;1836194;78;26604;-77
2021/05/20 08:38:18;;;;;;;28.73;16.83;;;;;;;13.01;100.00;101665.07;1836301;78;26733;-77
2021/05/20 08:40:49;;;;;;;11.63;7.00;;;;;;;13.08;100.00;101658.66;1836227;78;26216;-77
2021/05/20 08:43:19;;;;;;;100.07;82.17;;;;;;;12.98;100.00;101657.28;1836189;78;26628;-78
2021/05/20 08:45:49;;;;;;;34.67;27.87;;;;;;;12.88;100.00;101653.13;1836245;78;26277;-77
2021/05/20 08:48:19;;;;;;;89.30;67.87;;;;;;;12.95;100.00;101655.06;1836283;78;26285;-78
2021/05/20 08:50:49;;;;;;;30.13;24.03;;;;;;;13.04;100.00;101653.38;1836282;78;26308;-78
2021/05/20 08:53:19;;;;;;;26.57;16.90;;;;;;;13.03;100.00;101648.34;1836273;78;26218;-78
2021/05/20 08:55:49;;;;;;;16.27;10.10;;;;;;;13.04;100.00;101645.01;1836278;78;26196;-78
2021/05/20 08:58:24;;;;;;;12.53;6.83;;;;;;;13.09;100.00;101649.19;1836344;78;26197;-78
2021/05/20 09:00:50;;;;;;;15.87;14.17;;;;;;;13.15;100.00;101634.95;1835550;78;26274;-79
2021/05/20 09:03:21;;;;;;;140.20;115.57;;;;;;;13.14;100.00;101631.88;1836234;77;26318;-78
2021/05/20 09:05:51;;;;;;;21.53;14.67;;;;;;;13.19;100.00;101624.06;1836425;78;26201;-78
2021/05/20 09:08:28;;;;;;;14.90;8.70;;;;;;;13.18;100.00;101620.43;1836434;78;26221;-79
2021/05/20 09:10:52;;;;;;;28.73;17.70;;;;;;;13.33;100.00;101628.48;1835377;78;26683;-79
2021/05/20 09:13:22;;;;;;;13.77;7.37;;;;;;;13.25;100.00;101617.91;1836251;76;26672;-79
2021/05/20 09:15:54;;;;;;;12.70;8.07;;;;;;;13.15;100.00;101603.43;1836474;78;26297;-79
2021/05/20 09:18:28;;;;;;;20.03;11.03;;;;;;;13.20;100.00;101590.87;1836368;78;26279;-79
2021/05/20 09:20:59;;;;;;;14.23;6.97;;;;;;;13.21;100.00;101580.83;1836354;78;26270;-78
2021/05/20 09:23:31;;;;;;;21.67;14.37;;;;;;;13.21;100.00;101575.25;1836219;78;26348;-78
2021/05/20 09:26:06;;;;;;;16.07;11.07;;;;;;;13.19;100.00;101571.05;1836222;78;26196;-78
2021/05/20 09:28:40;;;;;;;13.77;8.83;;;;;;;13.21;100.00;101553.48;1836181;78;26217;-79
2021/05/20 09:31:10;;;;;;;17.40;10.07;;;;;;;13.30;100.00;101543.41;1836248;78;26644;-78
2021/05/20 09:33:41;;;;;;;11.53;6.60;;;;;;;13.24;100.00;101536.17;1836309;78;26271;-78
2021/05/20 09:36:14;;;;;;;15.90;11.07;;;;;;;13.25;100.00;101528.63;1835218;78;26209;-78
2021/05/20 09:38:44;;;;;;;7.10;3.67;;;;;;;13.29;100.00;101526.94;1835746;78;26209;-78
2021/05/20 09:41:18;;;;;;;9.77;4.07;;;;;;;13.31;100.00;101510.73;1836304;77;26285;-78
2021/05/20 09:43:49;;;;;;;9.43;3.87;;;;;;;13.30;100.00;101504.90;1836188;78;26335;-78
2021/05/20 09:46:19;;;;;;;9.73;5.70;;;;;;;13.41;100.00;101485.56;1836201;78;26197;-77
2021/05/20 09:48:50;;;;;;;3.93;2.23;;;;;;;13.47;100.00;101486.66;1836174;78;26675;-78
2021/05/20 09:51:25;;;;;;;12.70;7.17;;;;;;;13.44;100.00;101466.28;1836311;78;26657;-77
2021/05/20 09:53:55;;;;;;;10.30;3.97;;;;;;;13.47;100.00;101462.94;1836270;78;26244;-77
2021/05/20 09:56:34;;;;;;;15.83;8.37;;;;;;;13.51;100.00;101468.20;1836162;78;26224;-77
2021/05/20 09:59:05;;;;;;;8.77;4.37;;;;;;;13.54;100.00;101460.64;1836253;78;26670;-77
2021/05/20 10:01:36;;;;;;;5.30;3.00;;;;;;;13.58;100.00;101456.70;1836349;78;26583;-77
2021/05/20 10:04:07;;;;;;;7.93;3.60;;;;;;;13.59;100.00;101443.86;1836235;77;26702;-77
2021/05/20 10:06:38;;;;;;;5.33;3.00;;;;;;;13.75;100.00;101436.18;1836188;78;26659;-77
2021/05/20 10:09:10;;;;;;;7.23;3.03;;;;;;;13.77;100.00;101427.52;1836152;78;26217;-77
2021/05/20 10:11:41;;;;;;;12.80;5.70;;;;;;;13.84;100.00;101427.45;1836244;78;26197;-77
2021/05/20 10:14:11;;;;;;;8.67;2.30;;;;;;;13.94;100.00;101430.72;1836065;76;26252;-78
2021/05/20 10:16:41;;;;;;;7.67;4.30;;;;;;;13.86;100.00;101426.58;1836166;78;26189;-77
2021/05/20 10:19:13;;;;;;;14.23;9.17;;;;;;;13.83;100.00;101419.36;1836173;78;26189;-78
2021/05/20 10:21:43;;;;;;;16.97;10.37;;;;;;;13.91;100.00;101418.16;1836313;78;26303;-77
2021/05/20 10:24:14;;;;;;;66.70;42.80;;;;;;;14.04;100.00;101417.47;1836257;78;26197;-77
2021/05/20 10:26:44;;;;;;;18.27;10.77;;;;;;;14.20;100.00;101412.58;1836144;78;26338;-77
2021/05/20 10:29:14;;;;;;;15.70;8.40;;;;;;;14.22;100.00;101406.67;1836246;78;26206;-77
2021/05/20 10:31:44;;;;;;;18.47;15.53;;;;;;;14.18;100.00;101397.22;1836316;78;26263;-77
2021/05/20 10:34:17;;;;;;;14.30;6.80;;;;;;;14.21;100.00;101389.63;1836133;78;26734;-77
2021/05/20 10:36:59;;;;;;;7.87;4.63;;;;;;;14.29;100.00;101375.04;1836303;77;26302;-77
2021/05/20 10:39:29;;;;;;;10.63;6.30;;;;;;;14.29;100.00;101359.08;1836111;78;26216;-78
2021/05/20 10:41:59;;;;;;;19.07;10.83;;;;;;;14.32;100.00;101348.72;1836202;78;26298;-77
2021/05/20 10:44:30;;;;;;;7.90;4.20;;;;;;;14.35;100.00;101349.55;1836371;78;26208;-77
2021/05/20 10:47:06;;;;;;;11.07;4.63;;;;;;;14.30;100.00;101352.92;1836303;78;26212;-78
2021/05/20 10:50:00;;;;;;;15.43;11.03;;;;;;;14.17;100.00;101358.66;1836330;78;26648;-78
2021/05/20 10:52:45;;;;;;;14.53;7.27;;;;;;;14.14;100.00;101355.08;1836312;78;26216;-77
2021/05/20 10:55:16;;;;;;;18.20;8.53;;;;;;;14.14;100.00;101341.11;1836613;78;26205;-77
2021/05/20 10:58:05;;;;;;;10.37;5.67;;;;;;;14.09;100.00;101329.98;1836347;77;26248;-77
2021/05/20 11:00:40;;;;;;;9.13;4.23;;;;;;;14.26;100.00;101319.73;1836382;78;26227;-77
2021/05/20 11:03:12;;;;;;;9.33;6.63;;;;;;;14.24;100.00;101328.42;1836344;77;26290;-77
2021/05/20 11:06:00;;;;;;;10.03;5.90;;;;;;;14.35;100.00;101318.80;1836306;78;26213;-77
2021/05/20 11:09:05;;;;;;;6.00;2.60;;;;;;;14.43;100.00;101305.56;1836287;78;26656;-78
2021/05/20 11:11:54;;;;;;;7.53;2.10;;;;;;;14.42;100.00;101310.04;1836268;78;26579;-77
2021/05/20 11:14:38;;;;;;;4.87;2.50;;;;;;;14.67;100.00;101296.30;1836152;76;26270;-78
2021/05/20 11:17:38;;;;;;;6.63;3.13;;;;;;;14.71;100.00;101293.16;1836242;78;26201;-77
2021/05/20 11:20:53;;;;;;;8.80;4.83;;;;;;;14.75;100.00;101297.85;1836312;78;26212;-78
2021/05/20 11:23:35;;;;;;;6.43;3.30;;;;;;;14.84;100.00;101298.00;1836319;78;26290;-79
2021/05/20 11:26:24;;;;;;;6.97;3.30;;;;;;;14.86;100.00;101293.75;1836409;78;26766;-78
2021/05/20 11:29:09;;;;;;;26.93;17.33;;;;;;;14.57;100.00;101296.70;1836256;78;26213;-79
2021/05/20 11:31:39;;;;;;;4.07;2.77;;;;;;;14.62;100.00;101296.37;1836350;77;26322;-78
2021/05/20 11:37:00;;;;;;;5.00;3.27;;;;;;;14.59;100.00;101304.20;1830481;78;26617;-77
2021/05/20 11:39:30;;;;;;;2.40;1.30;;;;;;;14.72;100.00;101278.05;1836246;78;26224;-77
2021/05/20 11:42:04;;;;;;;6.07;2.83;;;;;;;14.57;100.00;101265.12;1836343;78;26213;-77